sensor_id;sensor_type;location;lat;lon;timestamp;pressure;altitude;pressure_sealevel;temperature;humidity
6435;BME280;3250;42.694;23.278;2023-04-15T00:00:02;94085.41;;;9.14;74.99
6435;BME280;3250;42.694;23.278;2023-04-15T00:02:27;94078.34;;;9.14;73.87
6435;BME280;3250;42.694;23.278;2023-04-15T00:04:53;94090.28;;;9.28;73.96
6435;BME280;3250;42.694;23.278;2023-04-15T00:07:18;94081.56;;;8.98;74.17
6435;BME280;3250;42.694;23.278;2023-04-15T00:09:44;94093.72;;;9.11;75.50
6435;BME280;3250;42.694;23.278;2023-04-15T00:12:10;94090.66;;;9.32;75.33
6435;BME280;3250;42.694;23.278;2023-04-15T00:14:36;94064.31;;;9.20;74.84
6435;BME280;3250;42.694;23.278;2023-04-15T00:17:02;94062.53;;;9.02;75.82
6435;BME280;3250;42.694;23.278;2023-04-15T00:19:29;94081.47;;;9.23;75.22
6435;BME280;3250;42.694;23.278;2023-04-15T00:21:54;94074.41;;;9.05;75.40
6435;BME280;3250;42.694;23.278;2023-04-15T00:24:20;94086.53;;;8.88;75.63
6435;BME280;3250;42.694;23.278;2023-04-15T00:26:46;94083.75;;;9.01;76.35
6435;BME280;3250;42.694;23.278;2023-04-15T00:29:11;94085.19;;;9.15;76.60
6435;BME280;3250;42.694;23.278;2023-04-15T00:31:37;94091.50;;;9.26;77.81
6435;BME280;3250;42.694;23.278;2023-04-15T00:34:03;94105.88;;;9.41;78.18
6435;BME280;3250;42.694;23.278;2023-04-15T00:36:28;94098.13;;;9.46;78.24
6435;BME280;3250;42.694;23.278;2023-04-15T00:38:54;94098.50;;;9.50;77.89
6435;BME280;3250;42.694;23.278;2023-04-15T00:41:19;94097.38;;;9.58;78.11
6435;BME280;3250;42.694;23.278;2023-04-15T00:43:45;94075.88;;;9.49;78.88
6435;BME280;3250;42.694;23.278;2023-04-15T00:46:13;94083.56;;;9.62;79.17
6435;BME280;3250;42.694;23.278;2023-04-15T00:48:40;94075.25;;;9.65;78.52
6435;BME280;3250;42.694;23.278;2023-04-15T00:51:06;94066.88;;;9.57;78.74
6435;BME280;3250;42.694;23.278;2023-04-15T00:53:32;94081.66;;;9.39;79.94
6435;BME280;3250;42.694;23.278;2023-04-15T00:55:58;94046.03;;;9.14;78.85
6435;BME280;3250;42.694;23.278;2023-04-15T00:58:23;94084.72;;;9.36;79.37
6435;BME280;3250;42.694;23.278;2023-04-15T01:00:49;94080.94;;;9.32;80.05
6435;BME280;3250;42.694;23.278;2023-04-15T01:03:18;94100.94;;;9.33;81.30
6435;BME280;3250;42.694;23.278;2023-04-15T01:05:44;94108.81;;;9.33;81.99
6435;BME280;3250;42.694;23.278;2023-04-15T01:08:10;94095.31;;;9.30;82.63
6435;BME280;3250;42.694;23.278;2023-04-15T01:10:36;94105.13;;;9.34;82.53
6435;BME280;3250;42.694;23.278;2023-04-15T01:13:02;94099.13;;;9.34;82.11
6435;BME280;3250;42.694;23.278;2023-04-15T01:15:28;94066.38;;;9.18;82.84
6435;BME280;3250;42.694;23.278;2023-04-15T01:17:54;94073.72;;;9.28;82.58
6435;BME280;3250;42.694;23.278;2023-04-15T01:20:20;94095.13;;;9.13;83.78
6435;BME280;3250;42.694;23.278;2023-04-15T01:22:47;94093.72;;;9.11;83.70
6435;BME280;3250;42.694;23.278;2023-04-15T01:25:17;94083.00;;;9.12;83.97
6435;BME280;3250;42.694;23.278;2023-04-15T01:27:43;94075.44;;;9.04;84.32
6435;BME280;3250;42.694;23.278;2023-04-15T01:30:08;94082.78;;;9.14;84.03
6435;BME280;3250;42.694;23.278;2023-04-15T01:32:35;94088.47;;;9.11;83.99
6435;BME280;3250;42.694;23.278;2023-04-15T01:35:01;94074.84;;;9.02;83.87
6435;BME280;3250;42.694;23.278;2023-04-15T01:37:27;94086.94;;;9.03;84.04
6435;BME280;3250;42.694;23.278;2023-04-15T01:39:53;94088.66;;;8.97;83.94
6435;BME280;3250;42.694;23.278;2023-04-15T01:42:20;94091.69;;;8.94;84.50
6435;BME280;3250;42.694;23.278;2023-04-15T01:44:46;94095.13;;;8.95;84.60
6435;BME280;3250;42.694;23.278;2023-04-15T01:47:11;94091.91;;;8.93;84.95
6435;BME280;3250;42.694;23.278;2023-04-15T01:49:37;94096.00;;;8.89;84.64
6435;BME280;3250;42.694;23.278;2023-04-15T01:52:02;94096.56;;;8.91;84.63
6435;BME280;3250;42.694;23.278;2023-04-15T01:54:27;94094.19;;;8.89;84.16
6435;BME280;3250;42.694;23.278;2023-04-15T01:56:53;94100.16;;;8.78;83.74
6435;BME280;3250;42.694;23.278;2023-04-15T01:59:18;94086.13;;;8.48;84.14
6435;BME280;3250;42.694;23.278;2023-04-15T02:01:44;94077.78;;;8.08;84.41
6435;BME280;3250;42.694;23.278;2023-04-15T02:04:10;94113.09;;;8.30;84.50
6435;BME280;3250;42.694;23.278;2023-04-15T02:06:41;94104.44;;;8.29;84.35
6435;BME280;3250;42.694;23.278;2023-04-15T02:09:08;94096.19;;;8.26;84.25
6435;BME280;3250;42.694;23.278;2023-04-15T02:11:34;94107.91;;;8.48;84.37
6435;BME280;3250;42.694;23.278;2023-04-15T02:14:00;94099.03;;;8.49;84.54
6435;BME280;3250;42.694;23.278;2023-04-15T02:16:25;94100.63;;;8.50;84.42
6435;BME280;3250;42.694;23.278;2023-04-15T02:18:50;94097.81;;;8.52;84.82
6435;BME280;3250;42.694;23.278;2023-04-15T02:21:16;94076.72;;;8.40;84.51
6435;BME280;3250;42.694;23.278;2023-04-15T02:23:43;94098.19;;;8.55;84.06
6435;BME280;3250;42.694;23.278;2023-04-15T02:26:08;94096.56;;;8.54;84.35
6435;BME280;3250;42.694;23.278;2023-04-15T02:28:34;94083.44;;;8.36;84.18
6435;BME280;3250;42.694;23.278;2023-04-15T02:31:00;94095.34;;;8.32;84.20
6435;BME280;3250;42.694;23.278;2023-04-15T02:33:26;94089.03;;;8.15;84.37
6435;BME280;3250;42.694;23.278;2023-04-15T02:35:52;94106.09;;;8.24;83.65
6435;BME280;3250;42.694;23.278;2023-04-15T02:38:17;94101.97;;;8.10;84.18
6435;BME280;3250;42.694;23.278;2023-04-15T02:40:43;94104.75;;;8.15;84.19
6435;BME280;3250;42.694;23.278;2023-04-15T02:43:08;94103.13;;;8.14;84.04
6435;BME280;3250;42.694;23.278;2023-04-15T02:45:33;94111.66;;;8.09;83.56
6435;BME280;3250;42.694;23.278;2023-04-15T02:47:59;94108.66;;;8.06;83.42
6435;BME280;3250;42.694;23.278;2023-04-15T02:50:30;94097.69;;;7.90;83.62
6435;BME280;3250;42.694;23.278;2023-04-15T02:52:55;94110.31;;;8.00;83.51
6435;BME280;3250;42.694;23.278;2023-04-15T02:55:21;94111.31;;;7.99;83.07
6435;BME280;3250;42.694;23.278;2023-04-15T02:57:46;94107.97;;;7.92;82.63
6435;BME280;3250;42.694;23.278;2023-04-15T03:00:12;94112.44;;;7.85;82.97
6435;BME280;3250;42.694;23.278;2023-04-15T03:02:38;94118.69;;;7.84;82.95
6435;BME280;3250;42.694;23.278;2023-04-15T03:05:04;94123.94;;;7.84;82.19
6435;BME280;3250;42.694;23.278;2023-04-15T03:07:33;94119.91;;;7.81;82.47
6435;BME280;3250;42.694;23.278;2023-04-15T03:09:58;94125.41;;;7.73;82.54
6435;BME280;3250;42.694;23.278;2023-04-15T03:12:24;94128.84;;;7.74;82.91
6435;BME280;3250;42.694;23.278;2023-04-15T03:14:49;94133.13;;;7.68;82.52
6435;BME280;3250;42.694;23.278;2023-04-15T03:17:14;94134.13;;;7.67;82.64
6435;BME280;3250;42.694;23.278;2023-04-15T03:19:40;94128.13;;;7.60;82.24
6435;BME280;3250;42.694;23.278;2023-04-15T03:22:05;94120.06;;;7.55;82.82
6435;BME280;3250;42.694;23.278;2023-04-15T03:24:31;94137.00;;;7.59;82.69
6435;BME280;3250;42.694;23.278;2023-04-15T03:26:56;94140.81;;;7.56;82.73
6435;BME280;3250;42.694;23.278;2023-04-15T03:29:22;94140.81;;;7.56;82.95
6435;BME280;3250;42.694;23.278;2023-04-15T03:31:47;94141.06;;;7.48;83.02
6435;BME280;3250;42.694;23.278;2023-04-15T03:34:13;94146.34;;;7.42;83.49
6435;BME280;3250;42.694;23.278;2023-04-15T03:36:38;94145.13;;;7.38;83.52
6435;BME280;3250;42.694;23.278;2023-04-15T03:39:04;94153.19;;;7.36;83.48
6435;BME280;3250;42.694;23.278;2023-04-15T03:41:29;94160.88;;;7.31;83.94
6435;BME280;3250;42.694;23.278;2023-04-15T03:43:55;94167.91;;;7.37;83.50
6435;BME280;3250;42.694;23.278;2023-04-15T03:46:21;94171.75;;;7.35;83.59
6435;BME280;3250;42.694;23.278;2023-04-15T03:48:46;94167.75;;;7.19;83.60
6435;BME280;3250;42.694;23.278;2023-04-15T03:51:12;94168.38;;;7.21;83.43
6435;BME280;3250;42.694;23.278;2023-04-15T03:53:37;94187.47;;;7.28;83.18
6435;BME280;3250;42.694;23.278;2023-04-15T03:56:03;94189.28;;;7.28;83.54
6435;BME280;3250;42.694;23.278;2023-04-15T03:58:28;94186.47;;;7.23;83.30
6435;BME280;3250;42.694;23.278;2023-04-15T04:00:54;94189.28;;;7.28;83.09
6435;BME280;3250;42.694;23.278;2023-04-15T04:03:19;94162.19;;;7.02;83.38
6435;BME280;3250;42.694;23.278;2023-04-15T04:05:45;94173.84;;;7.06;82.82
6435;BME280;3250;42.694;23.278;2023-04-15T04:08:11;94166.31;;;6.65;83.63
6435;BME280;3250;42.694;23.278;2023-04-15T04:10:38;94164.31;;;6.34;85.71
6435;BME280;3250;42.694;23.278;2023-04-15T04:13:04;94192.06;;;6.55;85.46
6435;BME280;3250;42.694;23.278;2023-04-15T04:15:29;94190.03;;;6.51;85.87
6435;BME280;3250;42.694;23.278;2023-04-15T04:17:54;94168.34;;;6.57;86.71
6435;BME280;3250;42.694;23.278;2023-04-15T04:20:20;94179.91;;;7.00;84.47
6435;BME280;3250;42.694;23.278;2023-04-15T04:22:45;94167.84;;;7.50;83.10
6435;BME280;3250;42.694;23.278;2023-04-15T04:25:11;94179.94;;;8.21;80.35
6435;BME280;3250;42.694;23.278;2023-04-15T04:27:37;94193.44;;;8.99;77.67
6435;BME280;3250;42.694;23.278;2023-04-15T04:30:03;94198.53;;;9.67;75.42
6435;BME280;3250;42.694;23.278;2023-04-15T04:32:29;94197.19;;;10.36;72.31
6435;BME280;3250;42.694;23.278;2023-04-15T04:34:54;94202.41;;;11.12;69.64
6435;BME280;3250;42.694;23.278;2023-04-15T04:37:20;94198.22;;;11.75;67.77
6435;BME280;3250;42.694;23.278;2023-04-15T04:39:48;94186.66;;;12.21;64.87
6435;BME280;3250;42.694;23.278;2023-04-15T04:42:14;94212.34;;;12.87;62.63
6435;BME280;3250;42.694;23.278;2023-04-15T04:44:39;94219.03;;;13.45;61.23
6435;BME280;3250;42.694;23.278;2023-04-15T04:47:04;94213.38;;;14.02;58.37
6435;BME280;3250;42.694;23.278;2023-04-15T04:49:31;94235.66;;;14.81;56.79
6435;BME280;3250;42.694;23.278;2023-04-15T04:51:57;94231.22;;;15.61;54.26
6435;BME280;3250;42.694;23.278;2023-04-15T04:54:22;94228.88;;;16.32;51.87
6435;BME280;3250;42.694;23.278;2023-04-15T04:56:48;94215.72;;;17.03;50.25
6435;BME280;3250;42.694;23.278;2023-04-15T04:59:13;94226.81;;;17.81;46.89
6435;BME280;3250;42.694;23.278;2023-04-15T05:01:39;94232.81;;;18.71;43.79
6435;BME280;3250;42.694;23.278;2023-04-15T05:04:05;94235.16;;;19.50;42.63
6435;BME280;3250;42.694;23.278;2023-04-15T05:06:31;94226.78;;;19.86;40.99
6435;BME280;3250;42.694;23.278;2023-04-15T05:08:57;94242.81;;;20.57;39.44
6435;BME280;3250;42.694;23.278;2023-04-15T05:11:22;94256.91;;;20.63;38.58
6435;BME280;3250;42.694;23.278;2023-04-15T05:13:48;94251.97;;;21.07;37.94
6435;BME280;3250;42.694;23.278;2023-04-15T05:16:13;94248.81;;;21.57;37.22
6435;BME280;3250;42.694;23.278;2023-04-15T05:18:38;94262.03;;;22.27;35.78
6435;BME280;3250;42.694;23.278;2023-04-15T05:21:04;94259.22;;;22.59;34.37
6435;BME280;3250;42.694;23.278;2023-04-15T05:23:30;94261.13;;;22.17;34.97
6435;BME280;3250;42.694;23.278;2023-04-15T05:25:55;94271.03;;;22.85;35.23
6435;BME280;3250;42.694;23.278;2023-04-15T05:28:21;94258.47;;;23.08;32.80
6435;BME280;3250;42.694;23.278;2023-04-15T05:30:46;94269.25;;;23.75;31.63
6435;BME280;3250;42.694;23.278;2023-04-15T05:33:12;94248.72;;;24.67;31.00
6435;BME280;3250;42.694;23.278;2023-04-15T05:35:37;94263.28;;;24.66;29.21
6435;BME280;3250;42.694;23.278;2023-04-15T05:38:02;94257.53;;;25.07;29.63
6435;BME280;3250;42.694;23.278;2023-04-15T05:40:29;94258.50;;;25.63;28.65
6435;BME280;3250;42.694;23.278;2023-04-15T05:42:54;94248.81;;;25.62;27.87
6435;BME280;3250;42.694;23.278;2023-04-15T05:45:20;94257.41;;;26.19;27.56
6435;BME280;3250;42.694;23.278;2023-04-15T05:47:46;94258.19;;;26.87;27.38
6435;BME280;3250;42.694;23.278;2023-04-15T05:50:11;94263.66;;;27.28;26.01
6435;BME280;3250;42.694;23.278;2023-04-15T05:52:37;94263.75;;;27.73;26.96
6435;BME280;3250;42.694;23.278;2023-04-15T05:55:02;94258.56;;;28.13;26.01
6435;BME280;3250;42.694;23.278;2023-04-15T05:57:28;94262.84;;;28.84;25.04
6435;BME280;3250;42.694;23.278;2023-04-15T05:59:53;94269.25;;;29.56;23.66
6435;BME280;3250;42.694;23.278;2023-04-15T06:02:19;94271.50;;;29.66;23.74
6435;BME280;3250;42.694;23.278;2023-04-15T06:04:45;94266.63;;;29.59;23.15
6435;BME280;3250;42.694;23.278;2023-04-15T06:07:10;94273.78;;;29.80;23.29
6435;BME280;3250;42.694;23.278;2023-04-15T06:09:36;94271.53;;;29.54;22.77
6435;BME280;3250;42.694;23.278;2023-04-15T06:12:01;94277.53;;;29.47;22.13
6435;BME280;3250;42.694;23.278;2023-04-15T06:14:27;94270.31;;;29.27;22.96
6435;BME280;3250;42.694;23.278;2023-04-15T06:16:52;94270.91;;;29.20;22.75
6435;BME280;3250;42.694;23.278;2023-04-15T06:19:18;94277.50;;;28.71;23.50
6435;BME280;3250;42.694;23.278;2023-04-15T06:21:44;94282.78;;;28.43;24.44
6435;BME280;3250;42.694;23.278;2023-04-15T06:24:10;94290.72;;;28.15;24.10
6435;BME280;3250;42.694;23.278;2023-04-15T06:26:36;94290.69;;;27.28;24.78
6435;BME280;3250;42.694;23.278;2023-04-15T06:29:01;94288.13;;;26.44;25.66
6435;BME280;3250;42.694;23.278;2023-04-15T06:31:26;94284.94;;;25.78;27.29
6435;BME280;3250;42.694;23.278;2023-04-15T06:33:52;94290.19;;;25.23;27.27
6435;BME280;3250;42.694;23.278;2023-04-15T06:36:17;94299.28;;;24.70;28.75
6435;BME280;3250;42.694;23.278;2023-04-15T06:38:43;94296.69;;;24.56;30.21
6435;BME280;3250;42.694;23.278;2023-04-15T06:41:09;94287.50;;;23.64;29.39
6435;BME280;3250;42.694;23.278;2023-04-15T06:43:35;94296.16;;;23.03;30.70
6435;BME280;3250;42.694;23.278;2023-04-15T06:46:00;94297.16;;;22.66;31.61
6435;BME280;3250;42.694;23.278;2023-04-15T06:48:26;94282.31;;;22.46;31.83
6435;BME280;3250;42.694;23.278;2023-04-15T06:50:51;94300.16;;;22.51;32.54
6435;BME280;3250;42.694;23.278;2023-04-15T06:53:17;94300.06;;;22.42;32.15
6435;BME280;3250;42.694;23.278;2023-04-15T06:55:43;94301.88;;;22.19;32.24
6435;BME280;3250;42.694;23.278;2023-04-15T06:58:08;94300.91;;;21.64;33.22
6435;BME280;3250;42.694;23.278;2023-04-15T07:00:34;94291.63;;;21.43;35.77
6435;BME280;3250;42.694;23.278;2023-04-15T07:02:59;94289.56;;;21.54;36.27
6435;BME280;3250;42.694;23.278;2023-04-15T07:05:30;94276.63;;;21.74;35.41
6435;BME280;3250;42.694;23.278;2023-04-15T07:07:56;94260.66;;;21.69;33.33
6435;BME280;3250;42.694;23.278;2023-04-15T07:10:22;94272.69;;;21.21;34.56
6435;BME280;3250;42.694;23.278;2023-04-15T07:12:48;94293.06;;;20.08;35.47
6435;BME280;3250;42.694;23.278;2023-04-15T07:15:15;94286.75;;;19.98;37.58
6435;BME280;3250;42.694;23.278;2023-04-15T07:17:40;94294.88;;;20.41;35.81
6435;BME280;3250;42.694;23.278;2023-04-15T07:20:07;94285.47;;;20.20;36.56
6435;BME280;3250;42.694;23.278;2023-04-15T07:22:33;94248.25;;;19.76;36.29
6435;BME280;3250;42.694;23.278;2023-04-15T07:24:58;94298.34;;;20.42;36.34
6435;BME280;3250;42.694;23.278;2023-04-15T07:27:24;94255.38;;;20.09;36.96
6435;BME280;3250;42.694;23.278;2023-04-15T07:29:50;94281.16;;;20.90;36.67
6435;BME280;3250;42.694;23.278;2023-04-15T07:32:16;94287.63;;;21.03;36.99
6435;BME280;3250;42.694;23.278;2023-04-15T07:34:41;94296.63;;;20.75;37.54
6435;BME280;3250;42.694;23.278;2023-04-15T07:37:07;94294.19;;;20.54;34.83
6435;BME280;3250;42.694;23.278;2023-04-15T07:39:32;94295.94;;;20.64;36.83
6435;BME280;3250;42.694;23.278;2023-04-15T07:41:58;94278.44;;;20.71;35.64
6435;BME280;3250;42.694;23.278;2023-04-15T07:44:24;94282.28;;;20.42;34.23
6435;BME280;3250;42.694;23.278;2023-04-15T07:46:50;94282.47;;;20.69;35.06
6435;BME280;3250;42.694;23.278;2023-04-15T07:49:16;94292.28;;;21.16;34.50
6435;BME280;3250;42.694;23.278;2023-04-15T07:51:43;94282.84;;;20.62;35.71
6435;BME280;3250;42.694;23.278;2023-04-15T07:54:08;94295.13;;;20.16;34.43
6435;BME280;3250;42.694;23.278;2023-04-15T07:56:34;94306.97;;;20.10;36.35
6435;BME280;3250;42.694;23.278;2023-04-15T07:58:59;94295.66;;;20.42;36.48
6435;BME280;3250;42.694;23.278;2023-04-15T08:01:26;94303.63;;;20.89;36.50
6435;BME280;3250;42.694;23.278;2023-04-15T08:03:52;94287.91;;;21.58;35.44
6435;BME280;3250;42.694;23.278;2023-04-15T08:06:17;94295.78;;;22.00;31.79
6435;BME280;3250;42.694;23.278;2023-04-15T08:08:43;94302.56;;;21.09;32.15
6435;BME280;3250;42.694;23.278;2023-04-15T08:11:08;94297.41;;;20.04;34.46
6435;BME280;3250;42.694;23.278;2023-04-15T08:13:34;94310.16;;;19.54;36.07
6435;BME280;3250;42.694;23.278;2023-04-15T08:18:44;94309.88;;;20.13;34.29
6435;BME280;3250;42.694;23.278;2023-04-15T08:21:10;94314.00;;;20.24;33.37
6435;BME280;3250;42.694;23.278;2023-04-15T08:23:35;94293.66;;;20.05;35.12
6435;BME280;3250;42.694;23.278;2023-04-15T08:26:02;94292.09;;;19.98;32.01
6435;BME280;3250;42.694;23.278;2023-04-15T08:28:27;94283.72;;;19.81;32.69
6435;BME280;3250;42.694;23.278;2023-04-15T08:30:52;94293.94;;;19.40;32.94
6435;BME280;3250;42.694;23.278;2023-04-15T08:33:18;94310.28;;;18.30;36.10
6435;BME280;3250;42.694;23.278;2023-04-15T08:35:43;94288.84;;;17.81;36.85
6435;BME280;3250;42.694;23.278;2023-04-15T08:38:09;94298.16;;;17.84;36.28
6435;BME280;3250;42.694;23.278;2023-04-15T08:40:40;94269.16;;;17.52;37.16
6435;BME280;3250;42.694;23.278;2023-04-15T08:43:09;94292.84;;;17.53;39.59
6435;BME280;3250;42.694;23.278;2023-04-15T08:45:37;94293.91;;;17.42;38.32
6435;BME280;3250;42.694;23.278;2023-04-15T08:48:04;94290.19;;;17.53;40.15
6435;BME280;3250;42.694;23.278;2023-04-15T08:50:31;94291.50;;;17.76;39.59
6435;BME280;3250;42.694;23.278;2023-04-15T08:52:58;94295.53;;;17.38;37.85
6435;BME280;3250;42.694;23.278;2023-04-15T08:55:29;94286.47;;;17.29;38.13
6435;BME280;3250;42.694;23.278;2023-04-15T08:57:58;94284.59;;;16.99;36.63
6435;BME280;3250;42.694;23.278;2023-04-15T09:00:24;94262.16;;;16.59;39.06
6435;BME280;3250;42.694;23.278;2023-04-15T09:02:50;94274.47;;;17.06;40.63
6435;BME280;3250;42.694;23.278;2023-04-15T09:05:16;94258.00;;;17.29;34.89
6435;BME280;3250;42.694;23.278;2023-04-15T09:07:42;94267.78;;;17.85;37.31
6435;BME280;3250;42.694;23.278;2023-04-15T09:10:09;94237.72;;;17.79;38.96
6435;BME280;3250;42.694;23.278;2023-04-15T09:12:34;94269.31;;;18.11;37.30
6435;BME280;3250;42.694;23.278;2023-04-15T09:15:01;94262.19;;;17.96;35.76
6435;BME280;3250;42.694;23.278;2023-04-15T09:17:27;94257.41;;;17.73;37.04
6435;BME280;3250;42.694;23.278;2023-04-15T09:20:19;94256.09;;;17.81;37.59
6435;BME280;3250;42.694;23.278;2023-04-15T09:22:47;94227.06;;;17.89;36.50
6435;BME280;3250;42.694;23.278;2023-04-15T09:27:48;94257.72;;;18.46;32.35
6435;BME280;3250;42.694;23.278;2023-04-15T09:30:14;94257.97;;;18.44;30.09
6435;BME280;3250;42.694;23.278;2023-04-15T09:35:19;94265.47;;;18.37;33.67
6435;BME280;3250;42.694;23.278;2023-04-15T09:37:46;94265.94;;;18.55;32.26
6435;BME280;3250;42.694;23.278;2023-04-15T09:40:11;94264.81;;;18.71;34.51
6435;BME280;3250;42.694;23.278;2023-04-15T09:42:57;94254.94;;;18.71;35.17
6435;BME280;3250;42.694;23.278;2023-04-15T09:45:23;94237.16;;;18.52;32.62
6435;BME280;3250;42.694;23.278;2023-04-15T09:47:49;94237.31;;;18.21;34.93
6435;BME280;3250;42.694;23.278;2023-04-15T09:50:18;94245.13;;;18.62;36.07
6435;BME280;3250;42.694;23.278;2023-04-15T09:52:44;94254.94;;;18.71;34.05
6435;BME280;3250;42.694;23.278;2023-04-15T09:55:11;94260.78;;;18.73;32.85
6435;BME280;3250;42.694;23.278;2023-04-15T09:57:38;94242.25;;;18.48;31.65
6435;BME280;3250;42.694;23.278;2023-04-15T10:00:07;94237.84;;;18.18;32.16
6435;BME280;3250;42.694;23.278;2023-04-15T10:02:34;94257.66;;;17.97;29.02
6435;BME280;3250;42.694;23.278;2023-04-15T10:05:00;94256.13;;;17.45;30.13
6435;BME280;3250;42.694;23.278;2023-04-15T10:07:26;94275.28;;;17.42;28.63
6435;BME280;3250;42.694;23.278;2023-04-15T10:09:52;94248.66;;;17.42;30.98
6435;BME280;3250;42.694;23.278;2023-04-15T10:12:19;94254.28;;;17.35;30.79
6435;BME280;3250;42.694;23.278;2023-04-15T10:14:50;94262.75;;;17.48;30.94
6435;BME280;3250;42.694;23.278;2023-04-15T10:17:17;94252.88;;;17.89;31.94
6435;BME280;3250;42.694;23.278;2023-04-15T10:19:43;94251.72;;;18.15;33.70
6435;BME280;3250;42.694;23.278;2023-04-15T10:22:09;94225.06;;;18.20;32.22
6435;BME280;3250;42.694;23.278;2023-04-15T10:24:35;94243.75;;;18.15;30.66
6435;BME280;3250;42.694;23.278;2023-04-15T10:27:02;94242.03;;;18.34;34.18
6435;BME280;3250;42.694;23.278;2023-04-15T10:29:30;94236.06;;;18.63;32.52
6435;BME280;3250;42.694;23.278;2023-04-15T10:31:55;94218.41;;;18.72;32.09
6435;BME280;3250;42.694;23.278;2023-04-15T10:34:23;94245.28;;;18.80;31.67
6435;BME280;3250;42.694;23.278;2023-04-15T10:36:50;94233.00;;;18.79;32.40
6435;BME280;3250;42.694;23.278;2023-04-15T10:39:42;94233.84;;;18.75;32.59
6435;BME280;3250;42.694;23.278;2023-04-15T10:42:12;94234.56;;;18.85;32.43
6435;BME280;3250;42.694;23.278;2023-04-15T10:44:42;94231.50;;;17.99;33.30
6435;BME280;3250;42.694;23.278;2023-04-15T10:47:10;94231.25;;;18.05;34.85
6435;BME280;3250;42.694;23.278;2023-04-15T10:49:43;94214.13;;;18.22;34.92
6435;BME280;3250;42.694;23.278;2023-04-15T10:52:10;94221.38;;;18.11;34.56
6435;BME280;3250;42.694;23.278;2023-04-15T10:54:36;94211.69;;;18.25;33.97
6435;BME280;3250;42.694;23.278;2023-04-15T10:59:29;94214.47;;;18.64;34.92
6435;BME280;3250;42.694;23.278;2023-04-15T11:01:59;94220.88;;;18.53;35.31
6435;BME280;3250;42.694;23.278;2023-04-15T11:04:56;94213.03;;;18.28;34.57
6435;BME280;3250;42.694;23.278;2023-04-15T11:09:57;94224.03;;;18.11;33.63
6435;BME280;3250;42.694;23.278;2023-04-15T11:12:33;94199.25;;;18.16;35.01
6435;BME280;3250;42.694;23.278;2023-04-15T11:14:59;94208.84;;;18.12;35.38
6435;BME280;3250;42.694;23.278;2023-04-15T11:17:27;94204.81;;;18.24;37.00
6435;BME280;3250;42.694;23.278;2023-04-15T11:19:53;94196.66;;;18.50;35.43
6435;BME280;3250;42.694;23.278;2023-04-15T11:22:18;94199.25;;;18.65;34.96
6435;BME280;3250;42.694;23.278;2023-04-15T11:24:47;94205.69;;;18.59;35.64
6435;BME280;3250;42.694;23.278;2023-04-15T11:27:22;94203.84;;;18.59;32.99
6435;BME280;3250;42.694;23.278;2023-04-15T11:29:48;94212.72;;;18.34;33.88
6435;BME280;3250;42.694;23.278;2023-04-15T11:32:13;94212.19;;;18.37;33.29
6435;BME280;3250;42.694;23.278;2023-04-15T11:34:38;94203.59;;;18.45;35.71
6435;BME280;3250;42.694;23.278;2023-04-15T11:37:05;94206.19;;;18.66;32.86
6435;BME280;3250;42.694;23.278;2023-04-15T11:39:31;94191.28;;;18.05;33.69
6435;BME280;3250;42.694;23.278;2023-04-15T11:41:56;94207.47;;;18.24;34.21
6435;BME280;3250;42.694;23.278;2023-04-15T11:44:22;94188.94;;;18.43;32.69
6435;BME280;3250;42.694;23.278;2023-04-15T11:46:47;94202.59;;;18.36;31.97
6435;BME280;3250;42.694;23.278;2023-04-15T11:49:25;94199.16;;;18.26;32.54
6435;BME280;3250;42.694;23.278;2023-04-15T11:51:51;94181.72;;;18.04;32.06
6435;BME280;3250;42.694;23.278;2023-04-15T11:54:19;94202.22;;;17.99;32.35
6435;BME280;3250;42.694;23.278;2023-04-15T11:56:50;94188.94;;;17.94;35.17
6435;BME280;3250;42.694;23.278;2023-04-15T11:59:16;94189.09;;;18.18;33.32
6435;BME280;3250;42.694;23.278;2023-04-15T12:01:41;94188.47;;;18.36;31.61
6435;BME280;3250;42.694;23.278;2023-04-15T12:04:15;94199.47;;;18.73;31.37
6435;BME280;3250;42.694;23.278;2023-04-15T12:06:41;94197.38;;;18.65;31.22
6435;BME280;3250;42.694;23.278;2023-04-15T12:09:08;94206.88;;;18.81;31.66
6435;BME280;3250;42.694;23.278;2023-04-15T12:11:36;94205.88;;;18.72;31.40
6435;BME280;3250;42.694;23.278;2023-04-15T12:17:05;94201.06;;;18.69;31.31
6435;BME280;3250;42.694;23.278;2023-04-15T12:19:35;94199.94;;;18.80;31.15
6435;BME280;3250;42.694;23.278;2023-04-15T12:22:03;94187.56;;;18.95;28.35
6435;BME280;3250;42.694;23.278;2023-04-15T12:24:33;94203.53;;;18.61;31.04
6435;BME280;3250;42.694;23.278;2023-04-15T12:29:28;94169.84;;;18.31;30.61
6435;BME280;3250;42.694;23.278;2023-04-15T12:32:14;94214.47;;;18.64;31.56
6435;BME280;3250;42.694;23.278;2023-04-15T12:34:44;94212.75;;;18.78;32.09
6435;BME280;3250;42.694;23.278;2023-04-15T12:37:13;94211.00;;;18.98;31.11
6435;BME280;3250;42.694;23.278;2023-04-15T12:39:40;94209.59;;;18.71;31.24
6435;BME280;3250;42.694;23.278;2023-04-15T12:42:07;94204.75;;;18.78;32.60
6435;BME280;3250;42.694;23.278;2023-04-15T12:44:34;94199.22;;;19.04;32.57
6435;BME280;3250;42.694;23.278;2023-04-15T12:46:59;94203.16;;;18.77;31.07
6435;BME280;3250;42.694;23.278;2023-04-15T12:49:25;94222.00;;;18.91;31.03
6435;BME280;3250;42.694;23.278;2023-04-15T12:51:53;94224.09;;;18.99;32.09
6435;BME280;3250;42.694;23.278;2023-04-15T12:54:19;94222.44;;;19.03;31.99
6435;BME280;3250;42.694;23.278;2023-04-15T12:56:46;94221.00;;;19.16;30.22
6435;BME280;3250;42.694;23.278;2023-04-15T12:59:12;94215.13;;;18.85;30.80
6435;BME280;3250;42.694;23.278;2023-04-15T13:01:38;94223.81;;;18.96;29.96
6435;BME280;3250;42.694;23.278;2023-04-15T13:04:04;94218.41;;;19.06;29.64
6435;BME280;3250;42.694;23.278;2023-04-15T13:06:30;94207.41;;;19.12;30.66
6435;BME280;3250;42.694;23.278;2023-04-15T13:08:58;94210.47;;;19.30;30.59
6435;BME280;3250;42.694;23.278;2023-04-15T13:11:26;94208.53;;;19.06;31.21
6435;BME280;3250;42.694;23.278;2023-04-15T13:13:51;94183.00;;;18.95;31.66
6435;BME280;3250;42.694;23.278;2023-04-15T13:16:17;94187.66;;;19.13;31.57
6435;BME280;3250;42.694;23.278;2023-04-15T13:18:43;94211.53;;;19.29;29.66
6435;BME280;3250;42.694;23.278;2023-04-15T13:21:11;94214.22;;;19.29;29.51
6435;BME280;3250;42.694;23.278;2023-04-15T13:23:37;94201.19;;;18.93;29.88
6435;BME280;3250;42.694;23.278;2023-04-15T13:26:02;94183.84;;;18.57;31.50
6435;BME280;3250;42.694;23.278;2023-04-15T13:28:28;94214.13;;;18.76;31.44